sensor_id;sensor_type;location;lat;lon;timestamp;pressure;altitude;pressure_sealevel;temperature;humidity
42385;BME280;28042;43.986;22.860;2022-08-23T00:02:08;100443.91;;;22.45;94.75
42385;BME280;28042;43.986;22.860;2022-08-23T00:04:38;100440.84;;;22.47;94.72
42385;BME280;28042;43.986;22.860;2022-08-23T00:07:04;100438.63;;;22.39;95.50
42385;BME280;28042;43.986;22.860;2022-08-23T00:09:30;100436.41;;;22.46;95.48
42385;BME280;28042;43.986;22.860;2022-08-23T00:12:04;100431.41;;;22.38;96.03
42385;BME280;28042;43.986;22.860;2022-08-23T00:14:32;100432.78;;;22.40;96.20
42385;BME280;28042;43.986;22.860;2022-08-23T00:16:58;100431.72;;;22.31;96.32
42385;BME280;28042;43.986;22.860;2022-08-23T00:19:24;100433.69;;;22.25;97.05
42385;BME280;28042;43.986;22.860;2022-08-23T00:21:50;100427.00;;;22.21;97.80
42385;BME280;28042;43.986;22.860;2022-08-23T00:24:17;100426.47;;;22.24;98.11
42385;BME280;28042;43.986;22.860;2022-08-23T00:29:14;100424.25;;;22.16;99.07
42385;BME280;28042;43.986;22.860;2022-08-23T00:31:39;100434.84;;;22.09;99.42
42385;BME280;28042;43.986;22.860;2022-08-23T00:34:05;100425.91;;;21.97;100.00
42385;BME280;28042;43.986;22.860;2022-08-23T00:36:30;100432.88;;;21.99;100.00
42385;BME280;28042;43.986;22.860;2022-08-23T00:38:55;100431.19;;;22.04;100.00
42385;BME280;28042;43.986;22.860;2022-08-23T00:41:21;100434.25;;;22.02;100.00
42385;BME280;28042;43.986;22.860;2022-08-23T00:43:46;100444.81;;;21.95;100.00
42385;BME280;28042;43.986;22.860;2022-08-23T00:49:14;100445.38;;;21.77;100.00
42385;BME280;28042;43.986;22.860;2022-08-23T00:51:45;100441.78;;;21.71;100.00
42385;BME280;28042;43.986;22.860;2022-08-23T00:54:11;100452.03;;;21.70;100.00
42385;BME280;28042;43.986;22.860;2022-08-23T00:56:38;100440.69;;;21.72;100.00
42385;BME280;28042;43.986;22.860;2022-08-23T00:59:04;100442.34;;;21.73;100.00
42385;BME280;28042;43.986;22.860;2022-08-23T01:01:29;100450.94;;;21.71;100.00
42385;BME280;28042;43.986;22.860;2022-08-23T01:03:56;100454.28;;;21.73;100.00
42385;BME280;28042;43.986;22.860;2022-08-23T01:09:08;100469.25;;;21.78;100.00
42385;BME280;28042;43.986;22.860;2022-08-23T01:11:37;100469.53;;;21.76;100.00
42385;BME280;28042;43.986;22.860;2022-08-23T01:14:12;100473.44;;;21.75;100.00
42385;BME280;28042;43.986;22.860;2022-08-23T01:19:13;100487.03;;;21.66;100.00
42385;BME280;28042;43.986;22.860;2022-08-23T01:21:40;100488.69;;;21.67;100.00
42385;BME280;28042;43.986;22.860;2022-08-23T01:24:09;100481.19;;;21.63;100.00
42385;BME280;28042;43.986;22.860;2022-08-23T01:26:35;100475.63;;;21.63;100.00
42385;BME280;28042;43.986;22.860;2022-08-23T01:29:03;100478.69;;;21.61;100.00
42385;BME280;28042;43.986;22.860;2022-08-23T01:31:28;100481.50;;;21.66;100.00
42385;BME280;28042;43.986;22.860;2022-08-23T01:33:58;100489.81;;;21.66;100.00
42385;BME280;28042;43.986;22.860;2022-08-23T01:36:24;100490.09;;;21.70;100.00
42385;BME280;28042;43.986;22.860;2022-08-23T01:38:49;100499.81;;;21.78;100.00
42385;BME280;28042;43.986;22.860;2022-08-23T01:41:15;100492.03;;;21.75;100.00
42385;BME280;28042;43.986;22.860;2022-08-23T01:43:40;100496.50;;;21.81;100.00
42385;BME280;28042;43.986;22.860;2022-08-23T01:46:09;100497.59;;;21.85;100.00
42385;BME280;28042;43.986;22.860;2022-08-23T01:48:35;100496.47;;;21.86;100.00
42385;BME280;28042;43.986;22.860;2022-08-23T01:51:01;100498.44;;;21.85;100.00
42385;BME280;28042;43.986;22.860;2022-08-23T01:53:26;100501.47;;;21.89;100.00
42385;BME280;28042;43.986;22.860;2022-08-23T01:55:51;100503.16;;;21.90;100.00
42385;BME280;28042;43.986;22.860;2022-08-23T01:58:17;100508.16;;;21.93;100.00
42385;BME280;28042;43.986;22.860;2022-08-23T02:00:42;100511.75;;;21.93;100.00
42385;BME280;28042;43.986;22.860;2022-08-23T02:03:08;100512.31;;;21.85;100.00
42385;BME280;28042;43.986;22.860;2022-08-23T02:05:35;100509.28;;;21.82;100.00
42385;BME280;28042;43.986;22.860;2022-08-23T02:08:01;100498.97;;;21.77;100.00
42385;BME280;28042;43.986;22.860;2022-08-23T02:10:46;100503.97;;;21.80;100.00
42385;BME280;28042;43.986;22.860;2022-08-23T02:13:12;100508.69;;;21.80;100.00
42385;BME280;28042;43.986;22.860;2022-08-23T02:15:37;100512.59;;;21.79;100.00
42385;BME280;28042;43.986;22.860;2022-08-23T02:18:05;100499.81;;;21.78;100.00
42385;BME280;28042;43.986;22.860;2022-08-23T02:20:31;100500.66;;;21.73;100.00
42385;BME280;28042;43.986;22.860;2022-08-23T02:22:56;100502.59;;;21.72;100.00
42385;BME280;28042;43.986;22.860;2022-08-23T02:25:21;100500.38;;;21.64;100.00
42385;BME280;28042;43.986;22.860;2022-08-23T02:27:47;100504.78;;;21.60;100.00
42385;BME280;28042;43.986;22.860;2022-08-23T02:30:12;100502.56;;;21.52;100.00
42385;BME280;28042;43.986;22.860;2022-08-23T02:32:37;100496.19;;;21.52;100.00
42385;BME280;28042;43.986;22.860;2022-08-23T02:35:03;100489.25;;;21.49;100.00
42385;BME280;28042;43.986;22.860;2022-08-23T02:37:29;100503.69;;;21.46;100.00
42385;BME280;28042;43.986;22.860;2022-08-23T02:39:54;100503.69;;;21.46;100.00
42385;BME280;28042;43.986;22.860;2022-08-23T02:42:19;100498.09;;;21.41;100.00
42385;BME280;28042;43.986;22.860;2022-08-23T02:44:44;100501.69;;;21.31;100.00
42385;BME280;28042;43.986;22.860;2022-08-23T02:47:10;100501.97;;;21.30;100.00
42385;BME280;28042;43.986;22.860;2022-08-23T02:49:36;100507.25;;;21.36;100.00
42385;BME280;28042;43.986;22.860;2022-08-23T02:52:02;100504.78;;;21.40;100.00
42385;BME280;28042;43.986;22.860;2022-08-23T02:54:28;100504.75;;;21.30;100.00
42385;BME280;28042;43.986;22.860;2022-08-23T02:56:53;100500.25;;;21.24;100.00
42385;BME280;28042;43.986;22.860;2022-08-23T02:59:19;100496.94;;;21.22;100.00
42385;BME280;28042;43.986;22.860;2022-08-23T03:01:44;100496.94;;;21.22;100.00
42385;BME280;28042;43.986;22.860;2022-08-23T03:04:10;100503.00;;;21.18;100.00
42385;BME280;28042;43.986;22.860;2022-08-23T03:06:35;100498.59;;;21.23;100.00
42385;BME280;28042;43.986;22.860;2022-08-23T03:09:02;100496.97;;;21.32;100.00
42385;BME280;28042;43.986;22.860;2022-08-23T03:11:27;100502.53;;;21.42;100.00
42385;BME280;28042;43.986;22.860;2022-08-23T03:13:53;100492.59;;;21.46;100.00
42385;BME280;28042;43.986;22.860;2022-08-23T03:16:20;100494.25;;;21.47;100.00
42385;BME280;28042;43.986;22.860;2022-08-23T03:18:46;100509.22;;;21.46;100.00
42385;BME280;28042;43.986;22.860;2022-08-23T03:21:11;100497.53;;;21.44;100.00
42385;BME280;28042;43.986;22.860;2022-08-23T03:23:37;100497.56;;;21.39;100.00
42385;BME280;28042;43.986;22.860;2022-08-23T03:26:03;100495.91;;;21.38;100.00
42385;BME280;28042;43.986;22.860;2022-08-23T03:28:30;100511.13;;;21.30;100.00
42385;BME280;28042;43.986;22.860;2022-08-23T03:30:56;100519.19;;;21.32;100.00
42385;BME280;28042;43.986;22.860;2022-08-23T03:33:22;100515.84;;;21.30;100.00
42385;BME280;28042;43.986;22.860;2022-08-23T03:35:47;100525.22;;;21.24;100.00
42385;BME280;28042;43.986;22.860;2022-08-23T03:38:13;100525.78;;;21.21;100.00
42385;BME280;28042;43.986;22.860;2022-08-23T03:40:39;100538.25;;;21.18;100.00
42385;BME280;28042;43.986;22.860;2022-08-23T03:43:04;100550.19;;;21.24;100.00
42385;BME280;28042;43.986;22.860;2022-08-23T03:45:30;100565.81;;;21.30;100.00
42385;BME280;28042;43.986;22.860;2022-08-23T03:47:55;100568.28;;;21.36;100.00
42385;BME280;28042;43.986;22.860;2022-08-23T03:50:21;100570.78;;;21.33;100.00
42385;BME280;28042;43.986;22.860;2022-08-23T03:52:46;100586.34;;;21.29;100.00
42385;BME280;28042;43.986;22.860;2022-08-23T03:55:12;100575.72;;;21.26;100.00
42385;BME280;28042;43.986;22.860;2022-08-23T03:57:38;100585.72;;;21.22;100.00
42385;BME280;28042;43.986;22.860;2022-08-23T04:00:06;100586.25;;;21.18;100.00
42385;BME280;28042;43.986;22.860;2022-08-23T04:02:32;100575.72;;;21.26;100.00
42385;BME280;28042;43.986;22.860;2022-08-23T04:04:58;100576.91;;;21.30;100.00
42385;BME280;28042;43.986;22.860;2022-08-23T04:07:23;100586.00;;;21.25;100.00
42385;BME280;28042;43.986;22.860;2022-08-23T04:09:49;100579.06;;;21.23;100.00
42385;BME280;28042;43.986;22.860;2022-08-23T04:12:14;100577.19;;;21.33;100.00
42385;BME280;28042;43.986;22.860;2022-08-23T04:14:39;100584.16;;;21.41;100.00
42385;BME280;28042;43.986;22.860;2022-08-23T04:17:05;100592.75;;;21.39;100.00
42385;BME280;28042;43.986;22.860;2022-08-23T04:19:30;100589.97;;;21.44;100.00
42385;BME280;28042;43.986;22.860;2022-08-23T04:21:56;100583.31;;;21.40;100.00
42385;BME280;28042;43.986;22.860;2022-08-23T04:24:21;100579.16;;;21.38;100.00
42385;BME280;28042;43.986;22.860;2022-08-23T04:26:46;100583.31;;;21.40;100.00
42385;BME280;28042;43.986;22.860;2022-08-23T04:29:12;100582.72;;;21.33;100.00
42385;BME280;28042;43.986;22.860;2022-08-23T04:31:40;100579.41;;;21.31;100.00
42385;BME280;28042;43.986;22.860;2022-08-23T04:34:06;100594.59;;;21.24;100.00
42385;BME280;28042;43.986;22.860;2022-08-23T04:36:36;100604.00;;;21.17;100.00
42385;BME280;28042;43.986;22.860;2022-08-23T04:39:01;100607.88;;;21.16;100.00
42385;BME280;28042;43.986;22.860;2022-08-23T04:41:27;100612.59;;;21.16;100.00
42385;BME280;28042;43.986;22.860;2022-08-23T04:44:10;100632.91;;;21.27;100.00
42385;BME280;28042;43.986;22.860;2022-08-23T04:46:36;100650.41;;;21.27;100.00
42385;BME280;28042;43.986;22.860;2022-08-23T04:49:01;100678.91;;;21.17;100.00
42385;BME280;28042;43.986;22.860;2022-08-23T04:51:27;100684.94;;;21.04;100.00
42385;BME280;28042;43.986;22.860;2022-08-23T04:53:53;100674.16;;;20.71;100.00
42385;BME280;28042;43.986;22.860;2022-08-23T04:56:19;100672.94;;;20.56;100.00
42385;BME280;28042;43.986;22.860;2022-08-23T04:58:47;100637.50;;;20.31;100.00
42385;BME280;28042;43.986;22.860;2022-08-23T05:01:13;100649.16;;;20.07;100.00
42385;BME280;28042;43.986;22.860;2022-08-23T05:03:40;100655.72;;;19.95;100.00
42385;BME280;28042;43.986;22.860;2022-08-23T05:06:05;100648.03;;;19.75;100.00
42385;BME280;28042;43.986;22.860;2022-08-23T05:08:31;100649.03;;;19.64;100.00
42385;BME280;28042;43.986;22.860;2022-08-23T05:11:03;100642.88;;;19.62;100.00
42385;BME280;28042;43.986;22.860;2022-08-23T05:13:29;100640.94;;;19.63;100.00
42385;BME280;28042;43.986;22.860;2022-08-23T05:15:55;100637.78;;;19.54;100.00
42385;BME280;28042;43.986;22.860;2022-08-23T05:18:20;100640.16;;;19.45;100.00
42385;BME280;28042;43.986;22.860;2022-08-23T05:20:46;100628.97;;;19.35;100.00
42385;BME280;28042;43.986;22.860;2022-08-23T05:23:12;100642.06;;;19.40;100.00
42385;BME280;28042;43.986;22.860;2022-08-23T05:25:37;100635.16;;;19.42;100.00
42385;BME280;28042;43.986;22.860;2022-08-23T05:28:24;100640.03;;;19.35;100.00
42385;BME280;28042;43.986;22.860;2022-08-23T05:30:54;100635.03;;;19.32;100.00
42385;BME280;28042;43.986;22.860;2022-08-23T05:33:20;100638.31;;;19.29;100.00
42385;BME280;28042;43.986;22.860;2022-08-23T05:35:45;100637.22;;;19.30;100.00
42385;BME280;28042;43.986;22.860;2022-08-23T05:38:10;100639.47;;;19.33;100.00
42385;BME280;28042;43.986;22.860;2022-08-23T05:40:36;100632.84;;;19.34;100.00
42385;BME280;28042;43.986;22.860;2022-08-23T05:43:01;100628.47;;;19.38;100.00
42385;BME280;28042;43.986;22.860;2022-08-23T05:45:26;100631.81;;;19.40;100.00
42385;BME280;28042;43.986;22.860;2022-08-23T05:47:51;100625.88;;;19.54;100.00
42385;BME280;28042;43.986;22.860;2022-08-23T05:50:17;100616.00;;;19.58;100.00
42385;BME280;28042;43.986;22.860;2022-08-23T05:52:42;100630.84;;;19.73;100.00
42385;BME280;28042;43.986;22.860;2022-08-23T05:55:07;100631.78;;;19.84;100.00
42385;BME280;28042;43.986;22.860;2022-08-23T05:57:34;100636.34;;;19.95;100.00
42385;BME280;28042;43.986;22.860;2022-08-23T05:59:59;100637.03;;;20.08;100.00
42385;BME280;28042;43.986;22.860;2022-08-23T06:02:24;100634.91;;;20.20;100.00
42385;BME280;28042;43.986;22.860;2022-08-23T06:04:50;100636.75;;;20.41;100.00
42385;BME280;28042;43.986;22.860;2022-08-23T06:07:15;100637.22;;;20.60;100.00
42385;BME280;28042;43.986;22.860;2022-08-23T06:09:40;100645.50;;;20.97;100.00
42385;BME280;28042;43.986;22.860;2022-08-23T06:12:06;100646.75;;;21.22;100.00
42385;BME280;28042;43.986;22.860;2022-08-23T06:14:31;100657.69;;;21.38;100.00
42385;BME280;28042;43.986;22.860;2022-08-23T06:16:57;100665.25;;;21.58;100.00
42385;BME280;28042;43.986;22.860;2022-08-23T06:19:22;100661.00;;;22.13;100.00
42385;BME280;28042;43.986;22.860;2022-08-23T06:21:48;100663.53;;;22.61;100.00
42385;BME280;28042;43.986;22.860;2022-08-23T06:24:15;100673.81;;;22.91;100.00
42385;BME280;28042;43.986;22.860;2022-08-23T06:26:41;100681.59;;;23.04;100.00
42385;BME280;28042;43.986;22.860;2022-08-23T06:29:09;100690.47;;;23.21;100.00
42385;BME280;28042;43.986;22.860;2022-08-23T06:31:37;100696.84;;;23.17;100.00
42385;BME280;28042;43.986;22.860;2022-08-23T06:36:51;100698.28;;;22.99;99.78
42385;BME280;28042;43.986;22.860;2022-08-23T06:39:18;100701.91;;;22.53;100.00
42385;BME280;28042;43.986;22.860;2022-08-23T06:41:43;100697.72;;;22.61;100.00
42385;BME280;28042;43.986;22.860;2022-08-23T06:44:09;100685.50;;;22.77;100.00
42385;BME280;28042;43.986;22.860;2022-08-23T06:46:36;100696.34;;;22.79;100.00
42385;BME280;28042;43.986;22.860;2022-08-23T06:49:02;100701.63;;;22.96;100.00
42385;BME280;28042;43.986;22.860;2022-08-23T06:51:31;100699.41;;;23.03;100.00
42385;BME280;28042;43.986;22.860;2022-08-23T06:53:57;100701.00;;;23.29;98.15
42385;BME280;28042;43.986;22.860;2022-08-23T06:56:23;100700.75;;;23.10;96.76
42385;BME280;28042;43.986;22.860;2022-08-23T06:58:49;100689.34;;;23.22;96.90
42385;BME280;28042;43.986;22.860;2022-08-23T07:01:18;100699.59;;;23.27;96.34
42385;BME280;28042;43.986;22.860;2022-08-23T07:03:44;100689.31;;;23.27;98.20
42385;BME280;28042;43.986;22.860;2022-08-23T07:06:10;100677.63;;;23.30;98.08
42385;BME280;28042;43.986;22.860;2022-08-23T07:08:35;100690.69;;;23.35;98.21
42385;BME280;28042;43.986;22.860;2022-08-23T07:11:01;100696.06;;;23.86;95.25
42385;BME280;28042;43.986;22.860;2022-08-23T07:13:26;100704.09;;;23.97;92.62
42385;BME280;28042;43.986;22.860;2022-08-23T07:15:55;100709.63;;;24.08;92.30
42385;BME280;28042;43.986;22.860;2022-08-23T07:18:21;100717.53;;;23.85;94.01
42385;BME280;28042;43.986;22.860;2022-08-23T07:20:46;100728.19;;;23.68;92.45
42385;BME280;28042;43.986;22.860;2022-08-23T07:23:11;100724.31;;;23.59;92.76
42385;BME280;28042;43.986;22.860;2022-08-23T07:25:40;100704.63;;;23.30;96.17
42385;BME280;28042;43.986;22.860;2022-08-23T07:28:06;100711.34;;;23.13;97.42
42385;BME280;28042;43.986;22.860;2022-08-23T07:30:31;100712.19;;;23.04;96.47
42385;BME280;28042;43.986;22.860;2022-08-23T07:32:56;100711.66;;;22.87;97.81
42385;BME280;28042;43.986;22.860;2022-08-23T07:35:22;100720.53;;;22.78;98.05
42385;BME280;28042;43.986;22.860;2022-08-23T07:37:47;100728.88;;;22.73;96.39
42385;BME280;28042;43.986;22.860;2022-08-23T07:40:12;100722.75;;;22.71;97.56
42385;BME280;28042;43.986;22.860;2022-08-23T07:42:38;100735.03;;;22.86;97.10
42385;BME280;28042;43.986;22.860;2022-08-23T07:45:04;100729.44;;;23.01;96.42
42385;BME280;28042;43.986;22.860;2022-08-23T07:47:29;100740.56;;;23.01;95.68
42385;BME280;28042;43.986;22.860;2022-08-23T07:49:55;100738.06;;;22.99;94.30
42385;BME280;28042;43.986;22.860;2022-08-23T07:52:20;100741.66;;;23.10;93.94
42385;BME280;28042;43.986;22.860;2022-08-23T07:54:46;100741.66;;;23.10;93.73
42385;BME280;28042;43.986;22.860;2022-08-23T07:57:11;100745.56;;;23.24;94.44
42385;BME280;28042;43.986;22.860;2022-08-23T07:59:36;100747.78;;;23.22;93.73
42385;BME280;28042;43.986;22.860;2022-08-23T08:02:02;100753.06;;;23.24;93.00
42385;BME280;28042;43.986;22.860;2022-08-23T08:04:27;100748.63;;;23.23;94.67
42385;BME280;28042;43.986;22.860;2022-08-23T08:06:53;100743.31;;;23.26;94.68
42385;BME280;28042;43.986;22.860;2022-08-23T08:09:18;100746.69;;;23.28;97.26
42385;BME280;28042;43.986;22.860;2022-08-23T08:11:44;100753.34;;;23.17;94.98
42385;BME280;28042;43.986;22.860;2022-08-23T08:14:11;100753.94;;;22.89;94.66
42385;BME280;28042;43.986;22.860;2022-08-23T08:16:38;100753.34;;;22.71;97.07
42385;BME280;28042;43.986;22.860;2022-08-23T08:19:05;100746.66;;;22.47;99.32
42385;BME280;28042;43.986;22.860;2022-08-23T08:21:31;100749.44;;;22.42;100.00
42385;BME280;28042;43.986;22.860;2022-08-23T08:23:56;100750.50;;;22.31;100.00
42385;BME280;28042;43.986;22.860;2022-08-23T08:26:22;100753.53;;;22.24;100.00
42385;BME280;28042;43.986;22.860;2022-08-23T08:28:49;100753.75;;;22.02;100.00
42385;BME280;28042;43.986;22.860;2022-08-23T08:31:14;100756.13;;;21.78;100.00
42385;BME280;28042;43.986;22.860;2022-08-23T08:33:39;100755.53;;;21.71;100.00
42385;BME280;28042;43.986;22.860;2022-08-23T08:36:05;100759.41;;;21.65;100.00
42385;BME280;28042;43.986;22.860;2022-08-23T08:38:31;100769.66;;;21.59;100.00
42385;BME280;28042;43.986;22.860;2022-08-23T08:41:18;100769.66;;;21.59;100.00
42385;BME280;28042;43.986;22.860;2022-08-23T08:46:45;100779.88;;;21.16;100.00
42385;BME280;28042;43.986;22.860;2022-08-23T08:49:33;100780.44;;;21.18;100.00
42385;BME280;28042;43.986;22.860;2022-08-23T08:54:46;100767.84;;;21.33;100.00
42385;BME280;28042;43.986;22.860;2022-08-23T08:57:14;100769.78;;;21.32;100.00
42385;BME280;28042;43.986;22.860;2022-08-23T09:00:15;100768.94;;;21.32;100.00
42385;BME280;28042;43.986;22.860;2022-08-23T09:02:32;100763.28;;;21.22;100.00
42385;BME280;28042;43.986;22.860;2022-08-23T09:05:01;100768.78;;;21.11;100.00
42385;BME280;28042;43.986;22.860;2022-08-23T09:17:53;100756.72;;;20.64;100.00
42385;BME280;28042;43.986;22.860;2022-08-23T09:20:20;100763.31;;;20.57;100.00
42385;BME280;28042;43.986;22.860;2022-08-23T09:22:54;100764.38;;;20.51;100.00
42385;BME280;28042;43.986;22.860;2022-08-23T09:25:24;100768.47;;;20.49;100.00
42385;BME280;28042;43.986;22.860;2022-08-23T09:27:49;100774.28;;;20.47;100.00
42385;BME280;28042;43.986;22.860;2022-08-23T09:30:15;100770.94;;;20.45;100.00
42385;BME280;28042;43.986;22.860;2022-08-23T09:32:43;100773.72;;;20.45;100.00
42385;BME280;28042;43.986;22.860;2022-08-23T09:35:22;100771.94;;;20.39;100.00
42385;BME280;28042;43.986;22.860;2022-08-23T09:38:03;100760.88;;;20.39;100.00
42385;BME280;28042;43.986;22.860;2022-08-23T09:40:48;100770.63;;;20.42;100.00
42385;BME280;28042;43.986;22.860;2022-08-23T09:43:15;100764.72;;;20.33;100.00
42385;BME280;28042;43.986;22.860;2022-08-23T09:48:13;100762.97;;;20.27;100.00
42385;BME280;28042;43.986;22.860;2022-08-23T09:50:50;100758.56;;;20.31;100.00
42385;BME280;28042;43.986;22.860;2022-08-23T09:53:22;100758.19;;;20.44;100.00
42385;BME280;28042;43.986;22.860;2022-08-23T09:55:49;100756.28;;;20.50;100.00
42385;BME280;28042;43.986;22.860;2022-08-23T09:58:16;100759.97;;;20.55;100.00
42385;BME280;28042;43.986;22.860;2022-08-23T10:00:43;100761.13;;;20.59;100.00
42385;BME280;28042;43.986;22.860;2022-08-23T10:03:23;100755.34;;;20.66;100.00
42385;BME280;28042;43.986;22.860;2022-08-23T10:05:50;100757.97;;;20.83;100.00
42385;BME280;28042;43.986;22.860;2022-08-23T10:13:41;100752.25;;;21.27;100.00
42385;BME280;28042;43.986;22.860;2022-08-23T10:16:10;100756.44;;;21.29;100.00
42385;BME280;28042;43.986;22.860;2022-08-23T10:21:20;100759.03;;;21.46;100.00
42385;BME280;28042;43.986;22.860;2022-08-23T10:23:49;100759.88;;;21.52;100.00
42385;BME280;28042;43.986;22.860;2022-08-23T10:26:24;100766.25;;;21.47;100.00
42385;BME280;28042;43.986;22.860;2022-08-23T10:36:44;100789.34;;;21.58;100.00
42385;BME280;28042;43.986;22.860;2022-08-23T10:39:23;100790.47;;;21.62;100.00
42385;BME280;28042;43.986;22.860;2022-08-23T10:44:22;100799.22;;;21.81;100.00
42385;BME280;28042;43.986;22.860;2022-08-23T10:47:09;100807.00;;;21.89;100.00
42385;BME280;28042;43.986;22.860;2022-08-23T10:49:36;100824.53;;;21.89;97.52
42385;BME280;28042;43.986;22.860;2022-08-23T10:52:03;100832.59;;;21.91;96.56
42385;BME280;28042;43.986;22.860;2022-08-23T10:54:32;100833.66;;;21.85;95.68
42385;BME280;28042;43.986;22.860;2022-08-23T10:57:02;100839.16;;;21.75;98.57
42385;BME280;28042;43.986;22.860;2022-08-23T10:59:29;100843.56;;;21.70;98.77
42385;BME280;28042;43.986;22.860;2022-08-23T11:07:25;100835.31;;;21.81;100.00
42385;BME280;28042;43.986;22.860;2022-08-23T11:09:55;100827.53;;;21.83;100.00
42385;BME280;28042;43.986;22.860;2022-08-23T11:20:12;100827.31;;;22.62;95.18
42385;BME280;28042;43.986;22.860;2022-08-23T11:27:49;100828.78;;;23.10;90.81
42385;BME280;28042;43.986;22.860;2022-08-23T11:38:07;100825.69;;;23.73;88.93
42385;BME280;28042;43.986;22.860;2022-08-23T11:40:38;100833.97;;;23.93;87.73
42385;BME280;28042;43.986;22.860;2022-08-23T11:43:05;100843.47;;;23.92;86.70
42385;BME280;28042;43.986;22.860;2022-08-23T11:45:44;100843.97;;;24.05;86.12
42385;BME280;28042;43.986;22.860;2022-08-23T11:58:22;100834.47;;;24.16;85.53
42385;BME280;28042;43.986;22.860;2022-08-23T12:03:20;100835.31;;;24.16;85.59
42385;BME280;28042;43.986;22.860;2022-08-23T12:08:25;100845.75;;;23.75;86.66
42385;BME280;28042;43.986;22.860;2022-08-23T12:18:26;100843.25;;;23.43;89.24
42385;BME280;28042;43.986;22.860;2022-08-23T12:20:56;100835.19;;;23.41;90.74
42385;BME280;28042;43.986;22.860;2022-08-23T12:23:23;100835.44;;;23.76;90.03
42385;BME280;28042;43.986;22.860;2022-08-23T12:25:59;100829.25;;;23.99;87.72
42385;BME280;28042;43.986;22.860;2022-08-23T12:31:01;100824.22;;;24.61;84.59
42385;BME280;28042;43.986;22.860;2022-08-23T12:41:21;100817.19;;;25.71;79.08
42385;BME280;28042;43.986;22.860;2022-08-23T12:43:58;100817.03;;;25.86;78.22
42385;BME280;28042;43.986;22.860;2022-08-23T12:46:30;100818.09;;;25.37;78.51
42385;BME280;28042;43.986;22.860;2022-08-23T12:48:55;100818.63;;;25.05;80.57
42385;BME280;28042;43.986;22.860;2022-08-23T12:51:20;100818.31;;;25.12;81.67
42385;BME280;28042;43.986;22.860;2022-08-23T12:56:50;100807.47;;;25.63;78.52
42385;BME280;28042;43.986;22.860;2022-08-23T13:02:05;100815.13;;;25.81;77.37
42385;BME280;28042;43.986;22.860;2022-08-23T13:04:32;100816.44;;;25.89;76.03
42385;BME280;28042;43.986;22.860;2022-08-23T13:07:00;100821.88;;;26.23;75.72
42385;BME280;28042;43.986;22.860;2022-08-23T13:09:29;100833.31;;;26.03;78.92
42385;BME280;28042;43.986;22.860;2022-08-23T13:11:56;100838.50;;;25.90;78.26
42385;BME280;28042;43.986;22.860;2022-08-23T13:17:20;100835.53;;;25.19;79.44
42385;BME280;28042;43.986;22.860;2022-08-23T13:19:47;100830.72;;;25.29;79.83
42385;BME280;28042;43.986;22.860;2022-08-23T13:22:23;100823.50;;;25.52;79.11
42385;BME280;28042;43.986;22.860;2022-08-23T13:27:25;100811.03;;;25.11;83.33
42385;BME280;28042;43.986;22.860;2022-08-23T13:37:54;100805.50;;;25.34;79.77
42385;BME280;28042;43.986;22.860;2022-08-23T13:40:21;100803.63;;;25.30;81.48
42385;BME280;28042;43.986;22.860;2022-08-23T13:42:56;100796.66;;;25.56;81.11
42385;BME280;28042;43.986;22.860;2022-08-23T13:45:26;100805.72;;;25.96;78.25
42385;BME280;28042;43.986;22.860;2022-08-23T13:48:12;100793.81;;;25.85;78.69
42385;BME280;28042;43.986;22.860;2022-08-23T13:50:38;100791.22;;;25.94;78.70
42385;BME280;28042;43.986;22.860;2022-08-23T13:53:05;100789.69;;;25.83;79.55
42385;BME280;28042;43.986;22.860;2022-08-23T13:55:30;100791.56;;;25.87;79.84
42385;BME280;28042;43.986;22.860;2022-08-23T13:57:58;100792.31;;;25.69;80.66
42385;BME280;28042;43.986;22.860;2022-08-23T14:00:23;100793.31;;;25.54;80.87
42385;BME280;28042;43.986;22.860;2022-08-23T14:02:49;100782.03;;;25.64;81.47
42385;BME280;28042;43.986;22.860;2022-08-23T14:05:16;100775.22;;;25.18;80.26
42385;BME280;28042;43.986;22.860;2022-08-23T14:07:42;100775.78;;;25.20;81.97
42385;BME280;28042;43.986;22.860;2022-08-23T14:10:07;100774.19;;;25.08;82.02
42385;BME280;28042;43.986;22.860;2022-08-23T14:12:33;100767.56;;;25.04;82.35
42385;BME280;28042;43.986;22.860;2022-08-23T14:14:59;100755.88;;;24.92;81.65
42385;BME280;28042;43.986;22.860;2022-08-23T14:17:25;100752.03;;;24.88;82.48
42385;BME280;28042;43.986;22.860;2022-08-23T14:19:50;100753.00;;;25.07;83.16
42385;BME280;28042;43.986;22.860;2022-08-23T14:22:16;100747.31;;;25.18;82.06
42385;BME280;28042;43.986;22.860;2022-08-23T14:24:42;100739.38;;;25.30;81.03
42385;BME280;28042;43.986;22.860;2022-08-23T14:27:07;100737.66;;;25.34;81.07
42385;BME280;28042;43.986;22.860;2022-08-23T14:29:33;100733.88;;;25.49;80.75
42385;BME280;28042;43.986;22.860;2022-08-23T14:31:58;100731.66;;;25.70;80.57
42385;BME280;28042;43.986;22.860;2022-08-23T14:34:24;100731.34;;;25.76;81.57
42385;BME280;28042;43.986;22.860;2022-08-23T14:36:50;100726.84;;;25.51;81.69
42385;BME280;28042;43.986;22.860;2022-08-23T14:39:17;100722.22;;;25.42;81.81
42385;BME280;28042;43.986;22.860;2022-08-23T14:41:42;100726.28;;;25.54;81.28
42385;BME280;28042;43.986;22.860;2022-08-23T14:44:08;100718.94;;;25.58;82.29